Time;durP1;ratioP1;P1;durP2;ratioP2;P2;SDS_P1;SDS_P2;PMS_P1;PMS_P2;Temp;Humidity;BMP_temperature;BMP_pressure;BME280_temperature;BME280_humidity;BME280_pressure;Samples;Min_cycle;Max_cycle;Signal;HPM_P1;HPM_P2
2023/07/17 00:15:46;;;;;;;8.07;5.90;;;21.50;99.90;;;;;;5046695;22;20567;-92
2023/07/17 00:18:39;;;;;;;5.77;5.20;;;21.50;99.90;;;;;;5032005;28;20471;-92
2023/07/17 00:22:00;;;;;;;;;;;;;;;;;;;;;
2023/07/17 00:29:07;;;;;;;8.67;7.43;;;21.50;99.90;;;;;;5016870;28;20480;-91
2023/07/17 00:35:17;;;;;;;9.97;7.90;;;21.40;99.90;;;;;;4972577;28;20444;-93
2023/07/17 00:38:27;;;;;;;9.60;8.13;;;21.30;99.90;;;;;;4881447;29;20515;-92
2023/07/17 00:44:45;;;;;;;11.63;6.03;;;21.20;99.90;;;;;;5006016;28;20464;-93
2023/07/17 00:47:40;;;;;;;7.53;6.03;;;21.10;99.90;;;;;;4978596;28;20910;-94
2023/07/17 00:53:15;;;;;;;7.33;6.33;;;21.10;99.90;;;;;;5010529;28;20945;-91
2023/07/17 00:58:34;;;;;;;6.23;5.50;;;20.90;1.00;;;;;;5011643;28;20449;-91
2023/07/17 01:01:02;;;;;;;8.20;5.13;;;;;;;;;;5011275;28;20452;-92
2023/07/17 01:03:37;;;;;;;9.73;5.57;;;21.00;99.90;;;;;;5010919;28;20452;-92
2023/07/17 01:06:09;;;;;;;9.73;5.83;;;21.00;99.90;;;;;;5012027;28;20444;-92
2023/07/17 01:08:58;;;;;;;7.73;5.17;;;21.00;99.90;;;;;;5015364;28;20472;-92
2023/07/17 01:12:10;;;;;;;;;;;;;;;;;;;;;
2023/07/17 01:18:30;;;;;;;5.80;5.00;;;20.90;99.90;;;;;;5011532;28;20484;-92
2023/07/17 01:21:29;;;;;;;6.13;5.07;;;20.90;99.90;;;;;;4942670;28;20456;-93
2023/07/17 01:24:03;;;;;;;6.43;5.40;;;20.90;99.90;;;;;;5010129;28;20444;-91
2023/07/17 01:27:14;;;;;;;5.77;5.13;;;20.90;99.90;;;;;;4993181;28;20511;-93
2023/07/17 01:36:53;;;;;;;;;;;;;;;;;;;;;
2023/07/17 01:52:57;;;;;;;6.20;5.07;;;20.80;99.90;;;;;;4996844;28;20516;-91
2023/07/17 01:59:16;;;;;;;5.50;4.80;;;20.80;99.90;;;;;;4906039;29;20486;-91
2023/07/17 02:05:17;;;;;;;6.53;4.83;;;20.60;99.90;;;;;;4995575;28;20483;-91
2023/07/17 02:08:07;;;;;;;9.63;5.80;;;20.50;99.90;;;;;;4975940;28;20491;-92
2023/07/17 02:10:50;;;;;;;7.70;5.10;;;;;;;;;;4998926;28;20462;-91
2023/07/17 02:13:18;;;;;;;5.43;4.63;;;;;;;;;;4999163;28;20445;-89
2023/07/17 02:19:18;;;;;;;5.57;5.07;;;20.40;99.90;;;;;;4990842;28;20460;-92
2023/07/17 02:31:24;;;;;;;7.40;4.67;;;20.00;99.90;;;;;;5089340;22;20463;-91
2023/07/17 02:33:55;;;;;;;5.23;4.57;;;;;;;;;;5038354;28;20406;-91
2023/07/17 02:36:22;;;;;;;5.37;4.20;;;;;;;;;;5038400;28;20482;-90
2023/07/17 02:38:51;;;;;;;4.90;4.40;;;;;;;;;;5037988;28;20527;-91
2023/07/17 02:45:30;;;;;;;4.80;4.30;;;19.90;99.90;;;;;;5031006;28;20462;-92
2023/07/17 03:14:39;;;;;;;7.28;4.45;;;19.50;1.00;;;;;;5845520;22;10665896;-91
2023/07/17 03:17:25;;;;;;;5.30;4.90;;;19.50;99.90;;;;;;6338710;22;20202;-92
2023/07/17 03:29:45;;;;;;;5.60;5.10;;;19.60;99.90;;;;;;6186820;22;20427;-92
2023/07/17 03:38:01;;;;;;;6.77;5.03;;;19.50;99.90;;;;;;6290366;22;20456;-92
2023/07/17 03:48:38;;;;;;;7.23;5.53;;;19.30;99.90;;;;;;6279226;22;20411;-92
2023/07/17 03:55:04;;;;;;;8.10;5.30;;;19.30;99.90;;;;;;6216451;23;20391;-91
2023/07/17 04:12:12;;;;;;;6.80;5.87;;;19.30;99.90;;;;;;5864759;24;20473;-91
2023/07/17 04:25:39;;;;;;;7.87;5.73;;;19.00;1.00;;;;;;6142045;23;20466;-91
2023/07/17 04:32:05;;;;;;;6.27;5.67;;;19.00;99.90;;;;;;6193672;22;20388;-91
2023/07/17 04:34:33;;;;;;;5.90;4.93;;;;;;;;;;6225692;22;20401;-91
2023/07/17 04:37:01;;;;;;;5.53;4.77;;;19.00;99.90;;;;;;6286720;22;20467;-88
2023/07/17 04:39:28;;;;;;;6.83;6.10;;;19.10;99.90;;;;;;6290760;22;20511;-90
2023/07/17 04:41:56;;;;;;;7.10;5.40;;;19.20;99.90;;;;;;6287229;22;20400;-90
2023/07/17 04:44:23;;;;;;;8.13;4.80;;;;;;;;;;6288344;22;20930;-90
2023/07/17 04:46:50;;;;;;;7.57;5.53;;;;;;;;;;6300981;22;20395;-89
2023/07/17 04:49:17;;;;;;;8.67;5.93;;;;;;;;;;6306428;22;20422;-88
2023/07/17 04:51:44;;;;;;;7.40;5.83;;;19.20;99.90;;;;;;6306290;22;20411;-89
2023/07/17 04:54:12;;;;;;;9.07;5.53;;;19.50;99.90;;;;;;6303457;22;20409;-89
2023/07/17 04:56:40;;;;;;;7.27;5.47;;;;;;;;;;6287197;22;20460;-91
2023/07/17 04:59:07;;;;;;;7.87;5.33;;;19.30;1.00;;;;;;6287138;22;20419;-89
2023/07/17 05:01:33;;;;;;;9.13;5.57;;;17.60;99.90;;;;;;6288362;22;20787;-89
2023/07/17 05:04:01;;;;;;;9.40;5.50;;;;;;;;;;6287865;22;20405;-89
2023/07/17 05:06:29;;;;;;;7.13;5.50;;;20.30;1.00;;;;;;6285395;22;20455;-89
2023/07/17 05:08:55;;;;;;;6.10;4.80;;;19.90;99.90;;;;;;6286735;22;20409;-89
2023/07/17 05:11:24;;;;;;;8.33;5.33;;;20.80;99.90;;;;;;6287002;22;20532;-90
2023/07/17 05:13:50;;;;;;;7.47;5.90;;;19.90;99.90;;;;;;6286195;22;20495;-88
2023/07/17 05:16:18;;;;;;;7.47;5.83;;;;;;;;;;6287265;22;20427;-89
2023/07/17 05:18:44;;;;;;;7.80;6.00;;;19.90;99.90;;;;;;6290143;22;20500;-89
2023/07/17 05:21:11;;;;;;;9.67;5.93;;;20.10;99.90;;;;;;6296054;22;20412;-89
2023/07/17 05:23:38;;;;;;;7.50;5.57;;;21.00;99.90;;;;;;6293265;22;20400;-89
2023/07/17 05:26:05;;;;;;;7.17;5.43;;;;;;;;;;6300000;22;20408;-90
2023/07/17 05:28:35;;;;;;;6.97;4.83;;;19.70;1.00;;;;;;6287265;22;20932;-89
2023/07/17 05:31:02;;;;;;;9.37;5.50;;;19.80;99.90;;;;;;6287380;22;20444;-89
2023/07/17 05:33:28;;;;;;;5.83;5.23;;;19.90;99.90;;;;;;6289307;22;20401;-88
2023/07/17 05:35:55;;;;;;;5.80;5.10;;;19.90;99.90;;;;;;6287645;22;20503;-88
2023/07/17 05:38:22;;;;;;;8.43;5.10;;;20.00;1.00;;;;;;6288911;22;20423;-89
2023/07/17 05:40:49;;;;;;;8.90;5.20;;;;;;;;;;6295299;22;20449;-88
2023/07/17 05:43:16;;;;;;;9.30;5.73;;;20.00;99.90;;;;;;6286308;22;20925;-90
2023/07/17 05:45:44;;;;;;;6.23;5.23;;;19.90;99.90;;;;;;6285920;22;20436;-90
2023/07/17 05:48:11;;;;;;;8.50;5.60;;;20.00;99.90;;;;;;6285084;22;20487;-89
2023/07/17 05:50:39;;;;;;;5.23;4.73;;;20.00;99.90;;;;;;6284229;22;20413;-89
2023/07/17 05:53:06;;;;;;;8.57;5.63;;;20.00;99.90;;;;;;6285379;22;20447;-89
2023/07/17 05:55:33;;;;;;;11.70;5.90;;;20.00;99.90;;;;;;6292422;22;20413;-89
2023/07/17 05:57:59;;;;;;;7.20;5.60;;;20.20;99.90;;;;;;6300398;22;20892;-90
2023/07/17 06:00:26;;;;;;;6.10;4.47;;;20.40;99.90;;;;;;6302037;22;20416;-90
2023/07/17 06:02:55;;;;;;;7.43;5.97;;;20.40;99.90;;;;;;6300286;22;20476;-89
2023/07/17 06:05:22;;;;;;;9.63;5.00;;;20.60;1.00;;;;;;6299146;22;20396;-89
2023/07/17 06:07:49;;;;;;;5.63;4.13;;;20.60;99.90;;;;;;6299370;22;20397;-89
2023/07/17 06:10:16;;;;;;;10.50;5.70;;;;;;;;;;6297954;22;20428;-90
2023/07/17 06:12:43;;;;;;;8.30;5.50;;;20.90;99.90;;;;;;6290936;22;20491;-88
2023/07/17 06:15:13;;;;;;;6.93;4.83;;;20.70;99.90;;;;;;6288213;22;20436;-90
2023/07/17 06:17:40;;;;;;;6.43;5.73;;;;;;;;;;6286941;22;20441;-90
2023/07/17 06:20:09;;;;;;;9.57;5.40;;;21.30;1.00;;;;;;6301415;22;20417;-88
2023/07/17 06:22:36;;;;;;;7.07;5.10;;;;;;;;;;6305875;22;20395;-89
2023/07/17 06:25:04;;;;;;;5.73;5.20;;;;;;;;;;6291483;22;20404;-90
2023/07/17 06:27:32;;;;;;;6.20;5.00;;;;;;;;;;6287215;22;20412;-90
2023/07/17 06:29:59;;;;;;;6.90;5.07;;;21.50;99.90;;;;;;6285175;22;20476;-89
2023/07/17 06:32:26;;;;;;;5.87;4.50;;;;;;;;;;6284320;22;20408;-89
2023/07/17 06:34:53;;;;;;;8.90;5.77;;;21.70;99.90;;;;;;6284077;22;20941;-90
2023/07/17 06:37:21;;;;;;;5.67;5.17;;;21.80;99.90;;;;;;6282697;22;20454;-89
2023/07/17 06:39:48;;;;;;;6.80;5.47;;;22.00;99.90;;;;;;6287953;22;20436;-89
2023/07/17 06:42:15;;;;;;;7.90;5.20;;;22.10;99.90;;;;;;6304675;22;20416;-88
2023/07/17 06:44:42;;;;;;;9.97;5.17;;;;;;;;;;6303052;22;20393;-90
2023/07/17 06:47:09;;;;;;;5.23;4.40;;;;;;;;;;6301102;22;20499;-90
2023/07/17 06:49:36;;;;;;;9.07;5.23;;;;;;;;;;6298860;22;20440;-91
2023/07/17 06:52:03;;;;;;;9.47;5.20;;;;;;;;;;6297822;22;20438;-91
2023/07/17 06:54:32;;;;;;;6.47;5.30;;;22.30;99.90;;;;;;6295315;22;20439;-91
2023/07/17 06:56:59;;;;;;;9.00;5.33;;;;;;;;;;6292049;22;20432;-90
2023/07/17 06:59:28;;;;;;;7.70;5.80;;;22.00;1.00;;;;;;6291750;22;20435;-90
2023/07/17 07:01:55;;;;;;;8.00;5.50;;;;;;;;;;6289915;22;20469;-90
2023/07/17 07:04:23;;;;;;;6.60;5.60;;;;;;;;;;6293876;22;20447;-90
2023/07/17 07:06:50;;;;;;;6.03;4.97;;;;;;;;;;6285584;22;20407;-89
2023/07/17 07:09:17;;;;;;;7.17;5.30;;;22.50;99.90;;;;;;6284021;22;20448;-89
2023/07/17 07:11:45;;;;;;;9.57;6.23;;;22.60;99.90;;;;;;6285331;22;20411;-89
2023/07/17 07:14:12;;;;;;;7.47;5.63;;;22.50;99.90;;;;;;6285664;22;20480;-89
2023/07/17 07:16:39;;;;;;;7.33;5.27;;;22.60;99.90;;;;;;6285589;22;20432;-90
2023/07/17 07:19:05;;;;;;;6.73;5.40;;;22.60;99.90;;;;;;6285243;22;20531;-89
2023/07/17 07:21:32;;;;;;;10.93;6.20;;;22.70;99.90;;;;;;6286294;22;20405;-88
2023/07/17 07:23:59;;;;;;;7.70;5.60;;;22.50;99.90;;;;;;6293245;22;20675;-89
2023/07/17 07:26:26;;;;;;;6.33;5.30;;;22.80;99.90;;;;;;6286340;22;20428;-89
2023/07/17 07:28:54;;;;;;;5.90;5.37;;;22.60;99.90;;;;;;6285547;22;20958;-89
2023/07/17 07:31:21;;;;;;;5.53;4.73;;;22.60;99.90;;;;;;6286281;22;20751;-89
2023/07/17 07:33:49;;;;;;;10.70;5.40;;;;;;;;;;6285608;22;20405;-89
2023/07/17 07:36:16;;;;;;;15.73;4.90;;;;;;;;;;6285854;22;20774;-89
2023/07/17 07:38:43;;;;;;;6.03;4.57;;;22.90;99.90;;;;;;6285427;22;20432;-89
2023/07/17 07:41:09;;;;;;;5.93;4.13;;;23.00;99.90;;;;;;6286425;22;20377;-89
2023/07/17 07:43:36;;;;;;;10.30;4.83;;;23.10;99.90;;;;;;6288957;22;20507;-88
2023/07/17 07:46:04;;;;;;;7.30;5.53;;;23.10;99.90;;;;;;6291112;22;20436;-89
2023/07/17 07:48:32;;;;;;;5.47;4.97;;;;;;;;;;6288032;22;20437;-89
2023/07/17 07:50:59;;;;;;;8.23;4.90;;;;;;;;;;6289292;22;20411;-89
2023/07/17 07:53:26;;;;;;;6.57;4.70;;;;;;;;;;6293788;22;20409;-89
2023/07/17 07:55:53;;;;;;;10.60;4.80;;;23.30;99.90;;;;;;6294954;22;20432;-90
2023/07/17 07:58:20;;;;;;;5.10;4.47;;;23.20;1.00;;;;;;6295606;22;20412;-90
2023/07/17 08:00:47;;;;;;;7.50;4.67;;;23.40;99.90;;;;;;6289543;22;20404;-89
2023/07/17 08:03:15;;;;;;;5.00;4.50;;;23.60;99.90;;;;;;6292332;22;20893;-90
2023/07/17 08:05:42;;;;;;;7.97;5.40;;;23.60;99.90;;;;;;6297257;22;20409;-91
2023/07/17 08:08:09;;;;;;;4.83;4.20;;;23.70;99.90;;;;;;6288785;22;20420;-89
2023/07/17 08:10:38;;;;;;;5.23;4.73;;;23.80;99.90;;;;;;6286597;22;20467;-89
2023/07/17 08:13:05;;;;;;;6.20;4.57;;;23.80;99.90;;;;;;6298285;22;20401;-89
2023/07/17 08:15:33;;;;;;;5.33;4.30;;;23.90;99.90;;;;;;6305864;22;20412;-89
2023/07/17 08:18:00;;;;;;;4.77;4.20;;;;;;;;;;6305446;22;20436;-88
2023/07/17 08:20:29;;;;;;;7.30;4.93;;;23.90;99.90;;;;;;6303216;22;20432;-89
2023/07/17 08:22:56;;;;;;;9.17;4.83;;;23.90;99.90;;;;;;6300842;22;20431;-88
2023/07/17 08:25:23;;;;;;;5.53;4.00;;;24.00;99.90;;;;;;6299603;22;20416;-90
2023/07/17 08:27:51;;;;;;;9.33;4.77;;;24.00;99.90;;;;;;6291375;22;20456;-89
2023/07/17 08:30:18;;;;;;;5.10;4.43;;;24.10;99.90;;;;;;6287945;22;20424;-90
2023/07/17 08:32:45;;;;;;;7.63;4.50;;;;;;;;;;6289382;22;20405;-89
2023/07/17 08:35:13;;;;;;;7.67;5.40;;;24.10;99.90;;;;;;6290122;22;20435;-89
2023/07/17 08:37:41;;;;;;;5.20;4.47;;;23.90;1.00;;;;;;6301201;22;20449;-89
2023/07/17 08:40:10;;;;;;;5.67;3.50;;;24.20;99.90;;;;;;6302069;22;20409;-88
2023/07/17 08:42:38;;;;;;;6.70;5.17;;;24.30;99.90;;;;;;6295240;22;20399;-89
2023/07/17 08:45:07;;;;;;;4.93;4.30;;;24.20;1.00;;;;;;6294558;22;20404;-89
2023/07/17 08:47:34;;;;;;;7.37;4.30;;;25.00;99.90;;;;;;6293639;22;20431;-89
2023/07/17 08:50:02;;;;;;;8.30;4.43;;;24.50;99.90;;;;;;6297095;22;20429;-91
2023/07/17 08:52:30;;;;;;;8.93;5.30;;;24.50;99.90;;;;;;6294987;22;20408;-89
2023/07/17 08:54:58;;;;;;;3.77;3.37;;;24.60;1.00;;;;;;6302284;22;20409;-89
2023/07/17 08:57:27;;;;;;;5.47;4.13;;;24.60;99.90;;;;;;6305745;22;20459;-88
2023/07/17 08:59:56;;;;;;;11.50;5.00;;;24.70;99.90;;;;;;6301843;22;20436;-89
2023/07/17 09:02:23;;;;;;;4.30;3.87;;;;;;;;;;6296529;22;20408;-88
2023/07/17 09:04:58;;;;;;;8.97;4.07;;;24.90;1.00;;;;;;6295546;22;20405;-87
2023/07/17 09:07:25;;;;;;;4.17;3.77;;;24.70;99.90;;;;;;6298227;22;20392;-90
2023/07/17 09:10:19;;;;;;;4.07;3.53;;;25.30;99.90;;;;;;6302213;22;20409;-88
2023/07/17 09:12:51;;;;;;;6.37;4.00;;;24.90;99.90;;;;;;6302019;22;20409;-88
2023/07/17 09:15:17;;;;;;;6.80;3.80;;;24.80;99.90;;;;;;6301766;22;20415;-89
2023/07/17 09:17:45;;;;;;;6.47;3.77;;;24.90;99.90;;;;;;6302080;22;20435;-88
2023/07/17 09:20:13;;;;;;;4.83;4.03;;;25.10;1.00;;;;;;6305802;22;20417;-85
2023/07/17 09:22:41;;;;;;;6.30;4.67;;;25.10;99.90;;;;;;6306102;22;20416;-89
2023/07/17 09:25:09;;;;;;;6.27;3.90;;;25.60;1.00;;;;;;6304531;22;20417;-89
2023/07/17 09:27:48;;;;;;;5.37;4.00;;;25.30;99.90;;;;;;6303071;22;20917;-89
2023/07/17 09:30:17;;;;;;;5.27;3.07;;;25.20;99.90;;;;;;6299894;22;20431;-90
2023/07/17 09:32:45;;;;;;;5.30;3.60;;;25.20;99.90;;;;;;6304847;22;20404;-89
2023/07/17 09:35:13;;;;;;;5.77;4.00;;;;;;;;;;6301512;22;20400;-90
2023/07/17 09:37:42;;;;;;;6.13;4.00;;;25.20;99.90;;;;;;6301146;22;20435;-90
2023/07/17 09:40:11;;;;;;;10.30;6.00;;;24.80;99.90;;;;;;6294317;22;20503;-89
2023/07/17 09:42:40;;;;;;;8.50;5.13;;;25.20;99.90;;;;;;6301939;22;20413;-87
2023/07/17 09:45:11;;;;;;;6.10;3.77;;;25.20;99.90;;;;;;6296349;22;20405;-90
2023/07/17 09:47:38;;;;;;;6.60;4.73;;;25.20;99.90;;;;;;6297735;22;20481;-89
2023/07/17 16:45:42;;;;;;;3.97;2.40;;;25.60;1.00;;;;;;6223430;22;20470;-94
2023/07/17 16:54:30;;;;;;;4.30;2.43;;;25.50;1.00;;;;;;6245915;22;20744;-89
2023/07/17 16:56:57;;;;;;;2.70;2.10;;;;;;;;;;6261891;23;20469;-90
2023/07/17 16:59:25;;;;;;;4.47;2.80;;;;;;;;;;6260791;23;20512;-89
2023/07/17 17:01:52;;;;;;;2.80;2.60;;;;;;;;;;6266796;23;20405;-90
2023/07/17 17:04:21;;;;;;;3.67;2.67;;;25.50;99.90;;;;;;6265500;23;20402;-89
2023/07/17 17:06:47;;;;;;;5.47;2.53;;;25.50;99.90;;;;;;6261994;23;20416;-88
2023/07/17 17:09:16;;;;;;;5.27;2.90;;;25.60;99.90;;;;;;6263393;23;20397;-90
2023/07/17 17:11:43;;;;;;;2.30;2.10;;;;;;;;;;6258375;23;20441;-90
2023/07/17 17:14:11;;;;;;;3.53;2.97;;;25.40;1.00;;;;;;6258566;23;20429;-89
2023/07/17 17:16:38;;;;;;;3.28;2.83;;;25.30;1.00;;;;;;6269953;22;20427;-89
2023/07/17 17:19:05;;;;;;;4.43;2.57;;;;;;;;;;6267338;23;20218;-89
2023/07/17 17:21:34;;;;;;;5.10;2.40;;;25.30;99.90;;;;;;6269929;23;20428;-90
2023/07/17 17:24:01;;;;;;;3.93;3.00;;;25.20;99.90;;;;;;6268682;23;20409;-89
2023/07/17 17:26:29;;;;;;;9.90;7.77;;;;;;;;;;6267113;23;20417;-89
2023/07/17 17:28:56;;;;;;;4.80;3.03;;;25.20;99.90;;;;;;6264953;23;20444;-90
2023/07/17 17:31:24;;;;;;;4.73;3.50;;;25.10;99.90;;;;;;6269483;23;20421;-89
2023/07/17 17:33:51;;;;;;;5.70;4.73;;;25.10;99.90;;;;;;6274770;22;20473;-89
2023/07/17 17:36:17;;;;;;;2.23;2.00;;;25.00;99.90;;;;;;6274432;22;20426;-88
2023/07/17 17:38:45;;;;;;;9.13;7.20;;;24.80;1.00;;;;;;6275079;22;20442;-88
2023/07/17 17:41:12;;;;;;;4.40;3.20;;;24.90;99.90;;;;;;6267999;22;20670;-90
2023/07/17 17:43:39;;;;;;;7.10;4.93;;;24.80;99.90;;;;;;6265920;23;20402;-90
2023/07/17 17:46:06;;;;;;;9.37;5.87;;;24.70;99.90;;;;;;6265882;23;20422;-90
2023/07/17 17:48:33;;;;;;;8.13;5.87;;;24.70;99.90;;;;;;6264963;23;20417;-89
2023/07/17 17:51:00;;;;;;;4.67;3.40;;;;;;;;;;6264856;23;20398;-89
2023/07/17 17:53:27;;;;;;;7.07;4.20;;;24.70;99.90;;;;;;6258526;23;20432;-90
2023/07/17 17:55:55;;;;;;;6.90;5.63;;;24.70;99.90;;;;;;6260226;23;20524;-90
2023/07/17 17:58:24;;;;;;;4.93;4.13;;;24.60;99.90;;;;;;6270528;22;20517;-89
2023/07/17 18:00:51;;;;;;;11.63;7.60;;;24.50;1.00;;;;;;6274568;22;20417;-89
2023/07/17 18:03:19;;;;;;;7.93;5.20;;;;;;;;;;6274876;22;20386;-87
2023/07/17 18:05:46;;;;;;;3.77;3.47;;;;;;;;;;6273323;22;20425;-88
2023/07/17 18:08:13;;;;;;;5.13;3.77;;;24.50;99.90;;;;;;6274502;22;20450;-89
2023/07/17 18:10:40;;;;;;;5.50;4.40;;;;;;;;;;6274567;22;20401;-87
2023/07/17 18:13:08;;;;;;;7.80;5.83;;;24.40;99.90;;;;;;6274540;22;20402;-87
2023/07/17 18:15:35;;;;;;;5.63;4.70;;;;;;;;;;6274623;22;20422;-87
2023/07/17 18:18:02;;;;;;;4.13;3.30;;;24.60;1.00;;;;;;6274557;22;20429;-87
2023/07/17 18:20:29;;;;;;;4.27;2.97;;;;;;;;;;6272960;22;20417;-88
2023/07/17 18:22:56;;;;;;;7.27;4.83;;;24.40;99.90;;;;;;6266454;23;20410;-89
2023/07/17 18:25:23;;;;;;;7.70;4.40;;;24.30;99.90;;;;;;6262156;23;20460;-90
2023/07/17 18:27:51;;;;;;;3.70;3.10;;;;;;;;;;6262096;23;20471;-90
2023/07/17 18:30:19;;;;;;;12.77;6.33;;;24.30;99.90;;;;;;6264221;23;20463;-89
2023/07/17 18:32:46;;;;;;;4.67;3.90;;;24.30;99.90;;;;;;6260692;22;20923;-91
2023/07/17 18:35:13;;;;;;;3.60;3.30;;;24.30;99.90;;;;;;6262839;23;20441;-90
2023/07/17 18:37:40;;;;;;;7.00;5.50;;;24.20;99.90;;;;;;6263065;23;20405;-90
2023/07/17 18:40:09;;;;;;;5.80;3.13;;;24.30;99.90;;;;;;6262071;23;20954;-91
2023/07/17 18:42:36;;;;;;;6.40;3.97;;;24.10;1.00;;;;;;6261668;23;20414;-90
2023/07/17 18:45:04;;;;;;;4.50;3.67;;;24.10;99.90;;;;;;6266646;23;20443;-91
2023/07/17 18:47:32;;;;;;;5.70;4.70;;;24.10;99.90;;;;;;6272805;22;20403;-90
2023/07/17 18:50:00;;;;;;;10.43;5.90;;;;;;;;;;6273970;22;20394;-89
2023/07/17 18:52:28;;;;;;;4.23;3.70;;;24.00;1.00;;;;;;6273547;22;20432;-90
2023/07/17 18:54:55;;;;;;;12.00;4.27;;;24.10;99.90;;;;;;6272803;22;20440;-89
2023/07/17 18:57:22;;;;;;;6.30;4.47;;;24.40;1.00;;;;;;6272835;22;20410;-87
2023/07/17 18:59:49;;;;;;;11.30;6.23;;;;;;;;;;6272154;22;20449;-88
2023/07/17 19:02:16;;;;;;;13.33;4.63;;;24.10;99.90;;;;;;6272660;22;20448;-87
2023/07/17 19:04:47;;;;;;;5.53;3.17;;;24.70;1.00;;;;;;6272983;22;20421;-88
2023/07/17 19:07:14;;;;;;;5.90;3.77;;;23.90;99.90;;;;;;6273536;22;20374;-87
2023/07/17 19:09:41;;;;;;;6.07;3.60;;;23.90;99.90;;;;;;6273646;22;20410;-86
2023/07/17 19:12:08;;;;;;;7.13;4.33;;;23.90;99.90;;;;;;6274284;22;20394;-87
2023/07/17 19:14:36;;;;;;;14.67;4.83;;;23.80;99.90;;;;;;6274332;22;20429;-87
2023/07/17 19:17:03;;;;;;;3.23;2.43;;;24.70;99.90;;;;;;6274080;22;20444;-85
2023/07/17 19:19:30;;;;;;;4.87;2.73;;;23.40;99.90;;;;;;6273746;22;20420;-87
2023/07/17 19:22:00;;;;;;;9.70;2.93;;;23.00;99.90;;;;;;6273294;22;20400;-87
2023/07/17 19:24:27;;;;;;;3.77;2.17;;;22.80;99.90;;;;;;6269451;23;20418;-89
2023/07/17 19:26:54;;;;;;;4.60;2.23;;;22.60;99.90;;;;;;6265380;23;20451;-89
2023/07/17 19:29:21;;;;;;;3.57;3.23;;;22.40;99.90;;;;;;6262484;23;20398;-89
2023/07/17 19:31:48;;;;;;;4.20;2.63;;;22.40;99.90;;;;;;6259640;23;20478;-89
2023/07/17 19:34:16;;;;;;;2.80;2.47;;;22.60;1.00;;;;;;6263793;23;20405;-88
2023/07/17 19:36:43;;;;;;;3.33;2.33;;;22.30;99.90;;;;;;6259213;23;20846;-89
2023/07/17 19:39:12;;;;;;;3.37;2.50;;;22.10;99.90;;;;;;6267586;22;20450;-88
2023/07/17 19:41:41;;;;;;;3.30;2.33;;;21.70;1.00;;;;;;6275318;22;20405;-89
2023/07/17 19:44:08;;;;;;;3.67;2.37;;;22.10;1.00;;;;;;6271122;22;20432;-89
2023/07/17 19:46:35;;;;;;;2.47;2.20;;;23.20;99.90;;;;;;6272342;22;20399;-92
2023/07/17 19:49:02;;;;;;;5.10;2.90;;;;;;;;;;6271665;23;20398;-90
2023/07/17 19:51:29;;;;;;;2.67;2.40;;;;;;;;;;6267055;23;20397;-90
2023/07/17 19:53:56;;;;;;;3.23;2.43;;;21.60;99.90;;;;;;6265912;23;20397;-90
2023/07/17 19:56:24;;;;;;;4.03;2.00;;;21.60;99.90;;;;;;6265907;23;20434;-89
2023/07/17 19:58:52;;;;;;;3.00;2.27;;;;;;;;;;6264274;23;20456;-91
2023/07/17 20:01:19;;;;;;;2.20;1.77;;;;;;;;;;6264578;23;20417;-89
2023/07/17 20:03:46;;;;;;;5.67;2.33;;;;;;;;;;6264708;23;20408;-90
2023/07/17 20:06:13;;;;;;;2.97;2.00;;;21.30;99.90;;;;;;6272461;22;20460;-90
2023/07/17 20:08:40;;;;;;;2.53;2.33;;;21.00;99.90;;;;;;6268809;22;20410;-90
2023/07/17 20:11:07;;;;;;;2.70;2.50;;;;;;;;;;6265555;23;20439;-90
2023/07/17 20:13:36;;;;;;;3.50;2.60;;;21.00;99.90;;;;;;6269724;23;20432;-90
2023/07/17 20:16:03;;;;;;;3.40;2.70;;;21.00;99.90;;;;;;6272749;22;20453;-90
2023/07/17 20:18:30;;;;;;;3.20;3.00;;;21.10;1.00;;;;;;6265589;23;20437;-90
2023/07/17 20:20:57;;;;;;;10.73;7.77;;;;;;;;;;6264134;23;20420;-90
2023/07/17 20:23:24;;;;;;;3.20;2.73;;;21.00;99.90;;;;;;6263183;23;20469;-88
2023/07/17 20:25:51;;;;;;;2.30;2.10;;;20.90;99.90;;;;;;6264031;23;20485;-89
2023/07/17 20:28:18;;;;;;;2.77;2.47;;;;;;;;;;6262654;23;20413;-88
2023/07/17 20:30:46;;;;;;;2.77;2.57;;;20.90;99.90;;;;;;6263769;23;20394;-88
2023/07/17 20:33:13;;;;;;;7.83;2.40;;;20.90;99.90;;;;;;6262785;23;20433;-89
2023/07/17 20:35:41;;;;;;;2.40;2.20;;;20.80;99.90;;;;;;6264954;23;20448;-91
2023/07/17 20:38:08;;;;;;;5.70;2.80;;;;;;;;;;6265511;22;20414;-89
2023/07/17 20:40:35;;;;;;;2.20;1.97;;;;;;;;;;6264896;23;20390;-89
2023/07/17 20:43:03;;;;;;;3.00;2.20;;;;;;;;;;6265273;23;20896;-90
2023/07/17 20:45:32;;;;;;;3.27;2.10;;;;;;;;;;6265167;22;20431;-89
2023/07/17 20:48:00;;;;;;;5.67;2.43;;;20.70;99.90;;;;;;6264460;22;20410;-91
2023/07/17 20:50:27;;;;;;;2.63;2.30;;;;;;;;;;6263326;23;20433;-89
2023/07/17 20:52:56;;;;;;;4.00;2.40;;;20.70;99.90;;;;;;6274223;22;20460;-90
2023/07/17 20:55:23;;;;;;;2.90;2.47;;;;;;;;;;6267063;23;20444;-91
2023/07/17 20:57:51;;;;;;;6.60;2.63;;;;;;;;;;6275350;22;20670;-90
2023/07/17 21:00:18;;;;;;;3.53;2.50;;;20.50;1.00;;;;;;6275698;22;20452;-89
2023/07/17 21:02:46;;;;;;;12.77;5.50;;;20.60;99.90;;;;;;6268272;23;20413;-90
2023/07/17 21:05:33;;;;;;;4.07;2.83;;;20.70;99.90;;;;;;6267645;23;20477;-89
2023/07/17 21:08:00;;;;;;;2.83;2.30;;;;;;;;;;6272328;22;20413;-91
2023/07/17 21:10:27;;;;;;;4.43;2.20;;;;;;;;;;6265857;23;20408;-89
2023/07/17 21:12:54;;;;;;;3.80;2.50;;;20.60;99.90;;;;;;6264509;23;20409;-90
2023/07/17 21:15:22;;;;;;;3.97;3.10;;;20.60;99.90;;;;;;6265251;23;20405;-89
2023/07/17 21:18:06;;;;;;;5.90;3.23;;;20.60;99.90;;;;;;6269287;22;20413;-91
2023/07/17 21:23:47;;;;;;;4.50;2.20;;;20.20;99.90;;;;;;6231689;22;20433;-90
2023/07/17 21:26:17;;;;;;;5.67;2.33;;;20.50;99.90;;;;;;6090798;23;20438;-90
2023/07/17 21:28:56;;;;;;;2.30;2.00;;;20.50;99.90;;;;;;6133908;23;20706;-90
2023/07/17 21:31:33;;;;;;;3.40;2.87;;;20.60;99.90;;;;;;6241261;22;20489;-91
2023/07/17 21:34:02;;;;;;;3.17;2.70;;;20.60;99.90;;;;;;6235069;23;20489;-91
2023/07/17 21:36:32;;;;;;;6.27;3.80;;;20.20;1.00;;;;;;6232355;23;20437;-91
2023/07/17 21:39:00;;;;;;;3.83;2.60;;;20.50;99.90;;;;;;6243915;22;20430;-90
2023/07/17 21:41:31;;;;;;;5.63;2.60;;;20.50;99.90;;;;;;6244793;22;20379;-91
2023/07/17 21:43:59;;;;;;;3.67;2.67;;;;;;;;;;6245021;22;20410;-90
2023/07/17 21:46:26;;;;;;;2.33;2.10;;;;;;;;;;6243926;22;20421;-89
2023/07/17 21:48:53;;;;;;;2.33;2.13;;;20.30;1.00;;;;;;6235290;23;20407;-89
2023/07/17 21:51:20;;;;;;;5.00;2.60;;;;;;;;;;6233618;23;20412;-90
2023/07/17 21:53:47;;;;;;;2.17;1.97;;;20.40;99.90;;;;;;6242113;22;20422;-92
2023/07/17 21:56:16;;;;;;;2.60;1.80;;;20.00;1.00;;;;;;6241745;22;20407;-90
2023/07/17 21:58:45;;;;;;;2.47;1.90;;;;;;;;;;6244570;22;20412;-91
2023/07/17 22:01:13;;;;;;;3.10;1.90;;;;;;;;;;6239639;22;20445;-91
2023/07/17 22:03:54;;;;;;;4.97;2.20;;;20.10;99.90;;;;;;6234335;23;20487;-92
2023/07/17 22:06:35;;;;;;;2.40;2.10;;;20.20;1.00;;;;;;6237764;23;20461;-90
2023/07/17 22:09:03;;;;;;;3.57;2.30;;;;;;;;;;6233941;23;20391;-90
2023/07/17 22:11:31;;;;;;;3.13;2.10;;;19.90;99.90;;;;;;6232219;23;20418;-90
2023/07/17 22:13:59;;;;;;;2.63;1.90;;;19.00;1.00;;;;;;6233553;22;20406;-92
2023/07/17 22:16:26;;;;;;;2.10;2.00;;;19.70;99.90;;;;;;6236256;23;20410;-90
2023/07/17 22:18:53;;;;;;;2.00;1.70;;;;;;;;;;6237492;22;20422;-90
2023/07/17 22:21:21;;;;;;;2.60;2.40;;;;;;;;;;6237868;23;20410;-91
2023/07/17 22:23:49;;;;;;;1.90;1.50;;;;;;;;;;6244559;23;20410;-91
2023/07/17 22:26:16;;;;;;;3.30;1.97;;;;;;;;;;6267511;23;20417;-90
2023/07/17 22:28:46;;;;;;;1.77;1.67;;;18.80;99.90;;;;;;6271581;22;20419;-88
2023/07/17 22:31:13;;;;;;;4.67;1.80;;;;;;;;;;6274781;22;20400;-88
2023/07/17 22:33:41;;;;;;;1.90;1.50;;;18.90;99.90;;;;;;6270585;22;20918;-91
2023/07/17 22:36:11;;;;;;;2.43;2.23;;;;;;;;;;6267275;22;21011;-91
2023/07/17 22:38:38;;;;;;;4.23;1.87;;;;;;;;;;6266433;23;20457;-90
2023/07/17 22:41:10;;;;;;;4.60;2.10;;;19.20;99.90;;;;;;6267781;22;20404;-91
2023/07/17 22:44:07;;;;;;;3.80;2.20;;;19.20;99.90;;;;;;6270926;22;20437;-92
2023/07/17 22:46:45;;;;;;;2.43;2.23;;;19.00;99.90;;;;;;6266399;23;20416;-93
2023/07/17 22:52:20;;;;;;;4.40;2.30;;;18.90;99.90;;;;;;6256692;23;20421;-91
2023/07/17 22:54:48;;;;;;;7.93;6.13;;;;;;;;;;6267406;22;20401;-91
2023/07/17 23:03:39;;;;;;;2.50;1.80;;;;;;;;;;6263113;23;20425;-89
2023/07/17 23:09:02;;;;;;;2.73;2.30;;;18.60;99.90;;;;;;5088788;27;1834082;-90
2023/07/17 23:11:32;;;;;;;3.97;2.17;;;18.60;99.90;;;;;;5169311;27;20253;-89
2023/07/17 23:13:59;;;;;;;2.30;2.10;;;18.70;1.00;;;;;;5171975;27;20433;-89
2023/07/17 23:16:26;;;;;;;4.10;2.17;;;;;;;;;;5150483;27;20470;-89
2023/07/17 23:21:41;;;;;;;5.97;1.97;;;;;;;;;;5145780;28;20422;-89
2023/07/17 23:24:13;;;;;;;3.40;2.43;;;;;;;;;;5142304;27;20499;-90
2023/07/17 23:26:45;;;;;;;5.57;3.60;;;18.50;99.90;;;;;;5143101;28;20442;-89
2023/07/17 23:29:12;;;;;;;6.80;4.53;;;;;;;;;;5148847;27;20446;-90
2023/07/17 23:34:24;;;;;;;3.50;2.67;;;;;;;;;;5147735;27;20423;-89
2023/07/17 23:36:55;;;;;;;4.07;2.50;;;;;;;;;;5146278;27;20518;-90
2023/07/17 23:39:37;;;;;;;8.13;2.30;;;18.20;99.90;;;;;;5146094;28;20430;-91